Time;durP1;ratioP1;P1;durP2;ratioP2;P2;SDS_P1;SDS_P2;PMS_P1;PMS_P2;Temp;Humidity;BMP_temperature;BMP_pressure;BME280_temperature;BME280_humidity;BME280_pressure;Samples;Min_cycle;Max_cycle;Signal;HPM_P1;HPM_P2
2023/05/12 00:01:15;;;;;;;3.13;1.55;;;;;;;;;;5027897;28;20052;-78
2023/05/12 00:03:41;;;;;;;2.75;1.60;;;;;;;;;;5028432;28;20044;-78
2023/05/12 00:06:07;;;;;;;2.78;1.70;;;;;;;;;;5031235;28;20037;-78
2023/05/12 00:08:33;;;;;;;1.90;1.70;;;;;;;;;;5028773;28;20142;-78
2023/05/12 00:10:59;;;;;;;6.25;2.10;;;;;;;;;;5028806;28;20105;-78
2023/05/12 00:13:25;;;;;;;3.10;2.25;;;;;;;;;;5027699;28;20021;-78
2023/05/12 00:15:53;;;;;;;2.42;1.25;;;;;;;;;;5030715;28;20075;-78
2023/05/12 00:18:19;;;;;;;2.58;1.83;;;;;;;;;;5023335;28;20480;-79
2023/05/12 00:20:45;;;;;;;3.05;1.70;;;;;;;;;;5028484;28;20045;-78
2023/05/12 00:23:11;;;;;;;1.55;1.30;;;;;;;;;;5026196;28;20025;-78
2023/05/12 00:25:37;;;;;;;1.98;1.58;;;;;;;;;;5027135;28;20018;-78
2023/05/12 00:28:03;;;;;;;2.40;1.90;;;;;;;;;;5034577;28;20025;-78
2023/05/12 00:30:29;;;;;;;3.35;1.63;;;;;;;;;;5021905;28;20117;-78
2023/05/12 00:32:55;;;;;;;2.35;1.80;;;;;;;;;;5026859;28;20032;-78
2023/05/12 00:35:21;;;;;;;2.30;1.77;;;;;;;;;;5028461;28;20055;-78
2023/05/12 00:37:47;;;;;;;2.38;1.65;;;;;;;;;;5028010;28;20060;-78
2023/05/12 00:40:13;;;;;;;2.70;1.63;;;;;;;;;;5027270;28;20488;-78
2023/05/12 00:42:40;;;;;;;2.10;1.73;;;;;;;;;;5028689;28;20021;-78
2023/05/12 00:45:07;;;;;;;2.05;1.83;;;;;;;;;;5027799;28;20471;-77
2023/05/12 00:47:33;;;;;;;2.75;1.70;;;;;;;;;;5035452;28;20036;-79
2023/05/12 00:49:59;;;;;;;2.95;1.80;;;;;;;;;;5023476;28;20037;-78
2023/05/12 00:52:26;;;;;;;2.67;1.58;;;;;;;;;;5027024;28;20033;-78
2023/05/12 00:54:52;;;;;;;2.35;1.83;;;;;;;;;;5028502;28;20037;-79
2023/05/12 00:57:18;;;;;;;2.30;1.67;;;;;;;;;;5031812;28;20032;-79
2023/05/12 00:59:44;;;;;;;2.88;1.88;;;;;;;;;;5028138;28;20365;-78
2023/05/12 01:02:10;;;;;;;2.38;1.70;;;;;;;;;;5028280;28;20075;-79
2023/05/12 01:04:38;;;;;;;4.70;2.30;;;;;;;;;;5028294;28;20042;-78
2023/05/12 01:07:08;;;;;;;2.67;1.83;;;;;;;;;;5027034;28;20331;-78
2023/05/12 01:09:34;;;;;;;2.50;1.80;;;;;;;;;;5034374;28;20036;-78
2023/05/12 01:12:01;;;;;;;3.28;1.60;;;;;;;;;;5026528;28;20029;-78
2023/05/12 01:14:30;;;;;;;4.32;1.92;;;;;;;;;;5026075;28;20026;-78
2023/05/12 01:16:58;;;;;;;2.95;1.88;;;;;;;;;;5026851;28;20108;-78
2023/05/12 01:19:34;;;;;;;5.63;1.75;;;;;;;;;;5028430;28;20037;-78
2023/05/12 01:22:00;;;;;;;2.38;1.70;;;;;;;;;;5024469;28;20027;-78
2023/05/12 01:24:28;;;;;;;4.03;1.90;;;;;;;;;;5028507;28;20026;-78
2023/05/12 01:26:55;;;;;;;2.97;1.80;;;;;;;;;;5027354;28;20488;-78
2023/05/12 01:29:21;;;;;;;1.88;1.60;;;;;;;;;;5027219;28;20033;-79
2023/05/12 01:31:48;;;;;;;2.17;1.42;;;;;;;;;;5024178;28;20029;-79
2023/05/12 01:34:17;;;;;;;2.92;2.13;;;;;;;;;;5026718;28;20029;-79
2023/05/12 01:36:43;;;;;;;1.92;1.65;;;;;;;;;;5027104;28;20121;-79
2023/05/12 01:39:10;;;;;;;2.85;1.95;;;;;;;;;;5031527;28;20052;-78
2023/05/12 01:41:36;;;;;;;2.70;1.70;;;;;;;;;;5030202;28;20026;-79
2023/05/12 01:44:02;;;;;;;2.20;1.80;;;;;;;;;;5027078;28;20018;-79
2023/05/12 01:46:28;;;;;;;3.78;1.80;;;;;;;;;;5027793;28;20080;-78
2023/05/12 01:48:54;;;;;;;4.10;1.90;;;;;;;;;;5025247;28;20025;-79
2023/05/12 01:51:20;;;;;;;3.08;1.90;;;;;;;;;;5026494;28;20021;-78
2023/05/12 01:53:46;;;;;;;3.22;1.58;;;;;;;;;;5028058;28;20017;-79
2023/05/12 01:56:12;;;;;;;3.17;1.70;;;;;;;;;;5031515;28;20499;-79
2023/05/12 01:58:38;;;;;;;2.65;1.80;;;;;;;;;;5026447;28;20033;-79
2023/05/12 02:01:04;;;;;;;2.83;1.75;;;;;;;;;;5024612;28;20029;-78
2023/05/12 02:03:30;;;;;;;3.65;1.60;;;;;;;;;;5025572;28;20029;-78
2023/05/12 02:05:56;;;;;;;2.30;1.80;;;;;;;;;;5035303;28;20365;-79
2023/05/12 02:08:22;;;;;;;2.22;1.63;;;;;;;;;;5025564;28;20027;-78
2023/05/12 02:10:48;;;;;;;2.97;1.60;;;;;;;;;;5025778;28;20383;-78
2023/05/12 02:13:14;;;;;;;3.03;2.03;;;;;;;;;;5027369;28;20026;-78
2023/05/12 02:15:40;;;;;;;2.15;1.63;;;;;;;;;;5026428;28;20025;-78
2023/05/12 02:18:06;;;;;;;2.50;1.65;;;;;;;;;;5028596;28;20384;-79
2023/05/12 02:20:32;;;;;;;2.80;1.98;;;;;;;;;;5008835;28;20029;-79
2023/05/12 02:22:58;;;;;;;2.83;1.92;;;;;;;;;;5033445;28;20186;-78
2023/05/12 02:25:24;;;;;;;3.97;1.85;;;;;;;;;;5026394;28;20041;-77
2023/05/12 02:27:50;;;;;;;3.00;1.83;;;;;;;;;;5023952;28;20021;-78
2023/05/12 02:30:16;;;;;;;2.33;1.60;;;;;;;;;;5026810;28;20029;-78
2023/05/12 02:32:45;;;;;;;2.10;1.60;;;;;;;;;;5025935;28;20032;-77
2023/05/12 02:35:11;;;;;;;6.55;2.20;;;;;;;;;;5025538;28;20084;-78
2023/05/12 02:37:37;;;;;;;3.58;2.10;;;;;;;;;;5029174;28;20480;-78
2023/05/12 02:40:03;;;;;;;3.65;1.77;;;;;;;;;;5024062;28;20037;-78
2023/05/12 02:42:34;;;;;;;2.17;1.67;;;;;;;;;;5030073;28;20048;-78
2023/05/12 02:45:00;;;;;;;2.47;1.63;;;;;;;;;;5028613;28;20017;-78
2023/05/12 02:47:30;;;;;;;2.58;1.73;;;;;;;;;;5025984;28;20582;-78
2023/05/12 02:49:56;;;;;;;1.92;1.52;;;;;;;;;;5024800;28;20034;-79
2023/05/12 02:52:22;;;;;;;2.83;2.30;;;;;;;;;;5025608;28;20723;-78
2023/05/12 02:54:48;;;;;;;2.28;2.03;;;;;;;;;;5028030;28;20081;-79
2023/05/12 02:57:14;;;;;;;3.10;1.70;;;;;;;;;;5026284;28;20029;-78
2023/05/12 02:59:40;;;;;;;3.90;1.83;;;;;;;;;;5023667;28;20029;-78
2023/05/12 03:02:05;;;;;;;2.13;1.73;;;;;;;;;;5024807;28;20025;-78
2023/05/12 03:04:32;;;;;;;2.40;1.67;;;;;;;;;;5030715;28;20049;-78
2023/05/12 03:06:58;;;;;;;2.83;2.00;;;;;;;;;;5029102;28;20028;-78
2023/05/12 03:09:24;;;;;;;3.55;2.25;;;;;;;;;;5024889;28;20030;-78
2023/05/12 03:11:50;;;;;;;5.25;2.30;;;;;;;;;;5026253;28;20113;-78
2023/05/12 03:14:16;;;;;;;3.70;1.73;;;;;;;;;;5025752;28;20029;-78
2023/05/12 03:16:42;;;;;;;2.20;1.73;;;;;;;;;;5025511;28;20026;-78
2023/05/12 03:19:08;;;;;;;2.97;1.70;;;;;;;;;;5025028;28;20400;-77
2023/05/12 03:21:34;;;;;;;1.90;1.60;;;;;;;;;;5021772;28;21177;-79
2023/05/12 03:24:00;;;;;;;3.33;1.73;;;;;;;;;;5025132;28;20113;-78
2023/05/12 03:26:26;;;;;;;4.35;1.88;;;;;;;;;;5027154;28;20022;-78
2023/05/12 03:28:52;;;;;;;3.58;1.90;;;;;;;;;;5026680;28;20065;-78
2023/05/12 03:31:18;;;;;;;3.10;2.28;;;;;;;;;;5025418;28;20434;-77
2023/05/12 03:33:44;;;;;;;2.65;1.95;;;;;;;;;;5024985;28;20087;-78
2023/05/12 03:36:10;;;;;;;3.22;1.75;;;;;;;;;;5027548;28;20361;-77
2023/05/12 03:38:36;;;;;;;6.20;2.00;;;;;;;;;;5036460;28;20028;-79
2023/05/12 03:41:05;;;;;;;6.75;1.80;;;;;;;;;;5022572;28;20546;-77
2023/05/12 03:43:32;;;;;;;5.90;2.17;;;;;;;;;;5027296;28;20053;-77
2023/05/12 03:45:58;;;;;;;3.15;1.75;;;;;;;;;;5029357;28;20025;-77
2023/05/12 03:48:24;;;;;;;2.60;1.60;;;;;;;;;;5027623;28;20033;-77
2023/05/12 03:50:50;;;;;;;2.50;2.17;;;;;;;;;;5032598;28;20029;-77
2023/05/12 03:53:16;;;;;;;4.03;2.25;;;;;;;;;;5029668;28;20040;-78
2023/05/12 03:55:42;;;;;;;3.63;2.22;;;;;;;;;;5026897;28;20037;-77
2023/05/12 03:58:08;;;;;;;2.72;2.00;;;;;;;;;;5029312;28;20392;-78
2023/05/12 04:00:34;;;;;;;3.40;1.83;;;;;;;;;;5028133;28;20026;-78
2023/05/12 04:03:00;;;;;;;4.43;1.92;;;;;;;;;;5028555;28;20388;-78
2023/05/12 04:05:26;;;;;;;4.25;2.30;;;;;;;;;;5029163;28;20041;-78
2023/05/12 04:07:54;;;;;;;3.03;2.38;;;;;;;;;;5028339;28;20025;-78
2023/05/12 04:10:21;;;;;;;3.45;1.95;;;;;;;;;;5020604;28;20130;-77
2023/05/12 04:12:47;;;;;;;5.93;2.33;;;;;;;;;;5026478;28;20025;-78
2023/05/12 04:15:13;;;;;;;3.13;1.77;;;;;;;;;;5028422;28;20555;-79
2023/05/12 04:17:39;;;;;;;2.28;1.65;;;;;;;;;;5037469;28;20029;-81
2023/05/12 04:20:06;;;;;;;2.83;1.95;;;;;;;;;;5028942;28;20492;-76
2023/05/12 04:22:32;;;;;;;3.47;1.73;;;;;;;;;;5027486;28;20033;-80
2023/05/12 04:25:00;;;;;;;2.53;1.85;;;;;;;;;;5029765;28;20022;-79
2023/05/12 04:27:26;;;;;;;1.77;1.60;;;;;;;;;;5023969;28;20468;-80
2023/05/12 04:29:52;;;;;;;4.60;2.00;;;;;;;;;;5017746;28;20022;-81
2023/05/12 04:32:18;;;;;;;4.10;2.33;;;;;;;;;;5019592;28;20527;-82
2023/05/12 04:34:44;;;;;;;3.10;2.03;;;;;;;;;;5024269;28;20026;-82
2023/05/12 04:37:10;;;;;;;3.67;1.95;;;;;;;;;;5023580;28;20056;-81
2023/05/12 04:39:36;;;;;;;2.95;1.85;;;;;;;;;;5025277;28;20048;-81
2023/05/12 04:42:05;;;;;;;3.42;2.08;;;;;;;;;;5023427;28;20017;-81
2023/05/12 04:44:31;;;;;;;3.78;2.17;;;;;;;;;;5025717;28;20037;-81
2023/05/12 04:46:57;;;;;;;3.90;1.83;;;;;;;;;;5026201;28;20080;-82
2023/05/12 04:49:23;;;;;;;3.72;1.83;;;;;;;;;;5019991;28;20084;-82
2023/05/12 04:51:49;;;;;;;5.22;2.22;;;;;;;;;;5033465;28;20037;-84
2023/05/12 04:54:15;;;;;;;3.58;2.20;;;;;;;;;;5027680;28;20029;-84
2023/05/12 04:56:45;;;;;;;4.10;1.92;;;;;;;;;;5031922;28;20160;-84
2023/05/12 04:59:11;;;;;;;2.40;2.03;;;;;;;;;;5026817;28;20040;-84
2023/05/12 05:01:37;;;;;;;3.40;1.95;;;;;;;;;;5026319;28;20676;-84
2023/05/12 05:04:03;;;;;;;6.05;2.00;;;;;;;;;;5027328;28;20042;-84
2023/05/12 05:06:29;;;;;;;3.45;1.95;;;;;;;;;;5032680;28;20037;-82
2023/05/12 05:08:56;;;;;;;2.47;1.75;;;;;;;;;;5028354;28;20018;-77
2023/05/12 05:11:22;;;;;;;4.40;2.05;;;;;;;;;;5025854;28;20094;-79
2023/05/12 05:13:48;;;;;;;3.00;2.10;;;;;;;;;;5026897;28;20028;-79
2023/05/12 05:16:14;;;;;;;3.30;1.77;;;;;;;;;;5026457;28;20446;-80
2023/05/12 05:18:45;;;;;;;2.28;1.65;;;;;;;;;;5028195;28;20064;-79
2023/05/12 05:21:10;;;;;;;3.03;2.05;;;;;;;;;;5018421;28;20503;-80
2023/05/12 05:23:36;;;;;;;3.25;1.90;;;;;;;;;;5021965;28;20029;-80
2023/05/12 05:26:02;;;;;;;3.05;2.08;;;;;;;;;;5028327;28;20708;-79
2023/05/12 05:28:29;;;;;;;8.45;2.00;;;;;;;;;;5032823;28;20112;-79
2023/05/12 05:30:55;;;;;;;4.13;1.83;;;;;;;;;;5024398;28;20099;-79
2023/05/12 05:33:21;;;;;;;2.28;1.83;;;;;;;;;;5026329;28;20474;-79
2023/05/12 05:35:47;;;;;;;3.92;2.00;;;;;;;;;;5029089;28;20032;-79
2023/05/12 05:38:13;;;;;;;2.70;2.05;;;;;;;;;;5028699;28;20029;-80
2023/05/12 05:40:39;;;;;;;4.53;2.05;;;;;;;;;;5025319;28;20040;-79
2023/05/12 05:43:06;;;;;;;3.67;2.28;;;;;;;;;;5024335;28;20053;-80
2023/05/12 05:45:32;;;;;;;2.67;1.90;;;;;;;;;;5023681;28;20013;-78
2023/05/12 05:47:58;;;;;;;5.93;1.98;;;;;;;;;;5011284;28;20022;-76
2023/05/12 05:50:24;;;;;;;3.35;1.83;;;;;;;;;;5004750;28;20087;-77
2023/05/12 05:52:50;;;;;;;3.47;1.88;;;;;;;;;;5021589;28;20036;-76
2023/05/12 05:55:16;;;;;;;4.95;2.20;;;;;;;;;;5022444;28;20029;-77
2023/05/12 05:57:42;;;;;;;7.55;2.75;;;;;;;;;;5022812;28;20198;-76
2023/05/12 06:00:08;;;;;;;2.92;1.65;;;;;;;;;;5020642;28;20048;-76
2023/05/12 06:02:34;;;;;;;2.58;1.95;;;;;;;;;;5025216;28;20018;-76
2023/05/12 06:05:00;;;;;;;2.70;1.77;;;;;;;;;;5024857;28;20077;-77
2023/05/12 06:07:38;;;;;;;4.50;2.08;;;;;;;;;;5025420;28;20075;-76
2023/05/12 06:10:05;;;;;;;3.30;1.80;;;;;;;;;;5021590;28;20036;-76
2023/05/12 06:12:31;;;;;;;5.78;2.42;;;;;;;;;;5026604;28;20043;-76
2023/05/12 06:14:57;;;;;;;3.65;1.90;;;;;;;;;;5027547;28;20030;-76
2023/05/12 06:17:23;;;;;;;3.75;1.80;;;;;;;;;;5025858;28;20102;-75
2023/05/12 06:19:49;;;;;;;4.68;2.20;;;;;;;;;;5028269;28;20021;-76
2023/05/12 06:22:15;;;;;;;2.83;1.77;;;;;;;;;;5030084;28;20018;-75
2023/05/12 06:24:41;;;;;;;3.40;2.00;;;;;;;;;;5026615;28;20102;-75
2023/05/12 06:27:07;;;;;;;5.05;2.17;;;;;;;;;;5026250;28;20112;-76
2023/05/12 06:29:34;;;;;;;3.22;2.40;;;;;;;;;;5026846;28;20365;-76
2023/05/12 06:32:00;;;;;;;2.65;1.90;;;;;;;;;;5023846;28;20038;-76
2023/05/12 06:34:26;;;;;;;3.05;1.70;;;;;;;;;;5032335;28;20033;-76
2023/05/12 06:36:52;;;;;;;2.95;1.85;;;;;;;;;;5028877;28;20033;-76
2023/05/12 06:39:18;;;;;;;5.97;2.00;;;;;;;;;;5025357;28;20030;-76
2023/05/12 06:41:44;;;;;;;2.83;1.85;;;;;;;;;;5023292;28;20025;-77
2023/05/12 06:44:11;;;;;;;2.95;1.83;;;;;;;;;;5026927;28;20095;-76
2023/05/12 06:46:40;;;;;;;3.13;2.10;;;;;;;;;;5023965;28;20545;-76
2023/05/12 06:49:07;;;;;;;2.97;1.90;;;;;;;;;;5029432;28;20380;-77
2023/05/12 06:51:33;;;;;;;1.63;1.42;;;;;;;;;;5025773;28;20040;-76
2023/05/12 06:54:03;;;;;;;1.88;1.67;;;;;;;;;;5024813;28;20030;-77
2023/05/12 06:56:29;;;;;;;2.20;1.55;;;;;;;;;;5026224;28;20420;-77
2023/05/12 06:59:00;;;;;;;2.67;1.83;;;;;;;;;;5023104;28;20014;-76
2023/05/12 07:01:26;;;;;;;2.33;1.67;;;;;;;;;;5027788;28;20025;-77
2023/05/12 07:03:53;;;;;;;2.20;1.77;;;;;;;;;;5021771;28;20047;-77
2023/05/12 07:06:19;;;;;;;2.72;1.90;;;;;;;;;;5033110;28;20622;-83
2023/05/12 07:08:45;;;;;;;3.60;1.60;;;;;;;;;;5028298;28;20041;-84
2023/05/12 07:11:11;;;;;;;3.00;1.80;;;;;;;;;;5029332;28;21166;-84
2023/05/12 07:13:37;;;;;;;3.08;2.03;;;;;;;;;;5030553;28;20472;-84
2023/05/12 07:16:04;;;;;;;7.45;1.80;;;;;;;;;;5016704;28;20021;-84
2023/05/12 07:18:30;;;;;;;2.08;1.88;;;;;;;;;;5032784;28;20132;-85
2023/05/12 07:20:56;;;;;;;2.25;1.73;;;;;;;;;;5032365;28;20056;-84
2023/05/12 07:23:22;;;;;;;4.43;2.25;;;;;;;;;;5037409;28;20017;-85
2023/05/12 07:25:48;;;;;;;3.83;2.00;;;;;;;;;;5031204;28;20028;-86
2023/05/12 07:28:14;;;;;;;2.63;1.85;;;;;;;;;;5030600;28;20026;-85
2023/05/12 07:30:40;;;;;;;3.40;1.90;;;;;;;;;;5030644;28;20018;-84
2023/05/12 07:33:07;;;;;;;3.05;1.85;;;;;;;;;;5040336;28;20033;-85
2023/05/12 07:35:33;;;;;;;2.38;1.92;;;;;;;;;;5031686;28;20014;-85
2023/05/12 07:37:59;;;;;;;2.75;1.52;;;;;;;;;;5038685;28;20036;-84
2023/05/12 07:40:25;;;;;;;1.90;1.70;;;;;;;;;;5030243;28;20079;-84
2023/05/12 07:42:51;;;;;;;3.10;1.63;;;;;;;;;;5040355;28;20020;-84
2023/05/12 07:45:21;;;;;;;2.30;1.55;;;;;;;;;;5039517;28;20024;-85
2023/05/12 07:47:48;;;;;;;1.90;1.52;;;;;;;;;;5030086;28;20036;-85
2023/05/12 07:50:14;;;;;;;2.67;1.50;;;;;;;;;;5030322;28;20030;-84
2023/05/12 07:52:45;;;;;;;3.28;2.00;;;;;;;;;;5030257;28;20482;-84
2023/05/12 07:55:11;;;;;;;4.68;2.25;;;;;;;;;;5033884;28;20028;-85
2023/05/12 07:57:37;;;;;;;4.18;2.00;;;;;;;;;;5037366;28;20836;-84
2023/05/12 08:00:04;;;;;;;1.85;1.48;;;;;;;;;;5029775;28;20029;-84
2023/05/12 08:02:30;;;;;;;3.25;1.70;;;;;;;;;;5030114;28;20049;-84
2023/05/12 08:04:56;;;;;;;2.67;1.70;;;;;;;;;;5037270;28;20059;-84
2023/05/12 08:07:21;;;;;;;1.77;1.35;;;;;;;;;;5034226;28;20825;-84
2023/05/12 08:09:47;;;;;;;2.10;1.40;;;;;;;;;;5029962;28;20464;-85
2023/05/12 08:12:13;;;;;;;3.22;1.50;;;;;;;;;;5030311;28;20032;-86
2023/05/12 08:14:39;;;;;;;1.85;1.48;;;;;;;;;;5029846;28;20076;-84
2023/05/12 08:17:06;;;;;;;2.80;1.60;;;;;;;;;;5027699;28;20034;-85
2023/05/12 08:19:32;;;;;;;2.53;1.70;;;;;;;;;;5034817;28;20025;-85
2023/05/12 08:21:58;;;;;;;2.38;1.50;;;;;;;;;;5020381;28;20435;-86
2023/05/12 08:24:24;;;;;;;2.83;1.65;;;;;;;;;;5021836;28;20056;-87
2023/05/12 08:26:50;;;;;;;2.63;1.70;;;;;;;;;;5024388;28;20075;-85
2023/05/12 08:29:16;;;;;;;2.28;1.60;;;;;;;;;;5029902;28;20029;-86
2023/05/12 08:31:42;;;;;;;2.60;1.80;;;;;;;;;;5038859;28;20711;-87
2023/05/12 08:34:08;;;;;;;1.95;1.58;;;;;;;;;;5042040;28;20060;-86
2023/05/12 08:36:34;;;;;;;3.80;1.77;;;;;;;;;;5029552;28;20025;-85
2023/05/12 08:39:01;;;;;;;1.73;1.30;;;;;;;;;;5029515;28;20083;-85
2023/05/12 08:41:40;;;;;;;2.88;1.60;;;;;;;;;;5029377;28;20104;-84
2023/05/12 08:44:07;;;;;;;1.88;1.40;;;;;;;;;;5033060;28;20026;-85
2023/05/12 08:46:33;;;;;;;2.95;1.83;;;;;;;;;;5033724;28;20082;-84
2023/05/12 08:49:02;;;;;;;3.90;1.70;;;;;;;;;;5021371;28;20033;-86
2023/05/12 08:51:28;;;;;;;2.15;1.58;;;;;;;;;;5029558;28;20083;-86
2023/05/12 08:53:55;;;;;;;3.40;1.50;;;;;;;;;;5029195;28;20021;-85
2023/05/12 08:56:23;;;;;;;2.60;1.58;;;;;;;;;;5027323;28;20183;-84
2023/05/12 08:58:49;;;;;;;2.15;1.80;;;;;;;;;;5037482;28;20018;-84
2023/05/12 09:01:16;;;;;;;1.75;1.60;;;;;;;;;;5028858;28;20021;-85
2023/05/12 09:03:42;;;;;;;1.88;1.58;;;;;;;;;;5027204;28;20155;-84
2023/05/12 09:06:09;;;;;;;2.10;1.60;;;;;;;;;;5042327;28;20436;-85
2023/05/12 09:08:36;;;;;;;2.47;1.45;;;;;;;;;;5028698;28;20022;-85
2023/05/12 09:11:02;;;;;;;2.25;1.50;;;;;;;;;;5028418;28;20033;-84
2023/05/12 09:13:48;;;;;;;3.60;1.50;;;;;;;;;;5030812;28;20487;-86
2023/05/12 09:16:15;;;;;;;2.10;1.40;;;;;;;;;;5032980;28;20025;-85
2023/05/12 09:18:52;;;;;;;2.72;1.95;;;;;;;;;;5028095;28;20025;-87
2023/05/12 09:21:18;;;;;;;3.03;1.50;;;;;;;;;;5028850;28;20033;-84
2023/05/12 09:23:57;;;;;;;2.15;1.60;;;;;;;;;;5027332;28;20025;-85
2023/05/12 09:26:24;;;;;;;2.33;1.23;;;;;;;;;;5031211;28;20395;-85
2023/05/12 09:28:52;;;;;;;1.25;1.15;;;;;;;;;;5031270;28;20056;-85
2023/05/12 09:31:18;;;;;;;2.78;1.48;;;;;;;;;;5028495;28;20038;-84
2023/05/12 09:33:45;;;;;;;2.05;1.52;;;;;;;;;;5028084;28;20022;-85
2023/05/12 09:36:11;;;;;;;2.08;1.48;;;;;;;;;;5038254;28;20040;-85
2023/05/12 09:38:37;;;;;;;2.10;1.38;;;;;;;;;;5028625;28;20032;-86
2023/05/12 09:41:03;;;;;;;7.97;2.35;;;;;;;;;;5027458;28;20394;-86
2023/05/12 09:43:29;;;;;;;3.53;1.90;;;;;;;;;;5028070;28;20041;-87
2023/05/12 09:45:55;;;;;;;3.67;1.50;;;;;;;;;;5029281;28;20464;-85
2023/05/12 09:48:21;;;;;;;1.35;1.25;;;;;;;;;;5037509;28;20032;-86
2023/05/12 09:50:50;;;;;;;1.95;1.48;;;;;;;;;;5028206;28;20036;-85
2023/05/12 09:53:17;;;;;;;4.82;1.92;;;;;;;;;;5028308;28;20029;-86
2023/05/12 09:55:43;;;;;;;2.28;1.30;;;;;;;;;;5027605;28;20026;-86
2023/05/12 09:58:10;;;;;;;1.55;1.35;;;;;;;;;;5028645;28;20033;-86
2023/05/12 10:00:38;;;;;;;1.48;1.20;;;;;;;;;;5027894;28;20037;-86
2023/05/12 10:03:11;;;;;;;2.22;1.40;;;;;;;;;;5027569;28;20025;-85
2023/05/12 10:05:38;;;;;;;2.13;1.38;;;;;;;;;;5028181;28;20068;-86
2023/05/12 10:08:06;;;;;;;1.70;1.38;;;;;;;;;;5035058;28;20110;-86
2023/05/12 10:10:33;;;;;;;1.77;1.25;;;;;;;;;;5027762;28;20043;-87
2023/05/12 10:13:00;;;;;;;2.58;1.50;;;;;;;;;;5027956;28;20142;-87
2023/05/12 10:15:27;;;;;;;2.28;1.63;;;;;;;;;;5035408;28;20633;-86
2023/05/12 10:17:54;;;;;;;2.15;1.60;;;;;;;;;;5020943;28;20120;-88
2023/05/12 10:20:20;;;;;;;1.33;1.00;;;;;;;;;;5027515;28;20040;-86
2023/05/12 10:22:48;;;;;;;1.52;1.27;;;;;;;;;;5027843;28;20075;-85
2023/05/12 10:25:14;;;;;;;1.45;1.20;;;;;;;;;;5026956;28;20503;-85
2023/05/12 10:27:41;;;;;;;2.03;1.45;;;;;;;;;;5038629;28;20150;-85
2023/05/12 10:30:07;;;;;;;1.83;1.10;;;;;;;;;;5028233;28;20029;-85
2023/05/12 10:32:33;;;;;;;2.00;1.20;;;;;;;;;;5027778;28;20059;-85
2023/05/12 10:35:09;;;;;;;1.42;1.17;;;;;;;;;;5009024;28;20430;-85
2023/05/12 10:37:42;;;;;;;3.35;1.48;;;;;;;;;;5031749;28;20040;-86
2023/05/12 10:40:10;;;;;;;3.28;1.45;;;;;;;;;;5028789;28;20033;-86
2023/05/12 10:42:40;;;;;;;2.15;1.38;;;;;;;;;;5036081;28;20434;-87
2023/05/12 10:45:16;;;;;;;2.58;1.27;;;;;;;;;;5033398;28;20049;-86
2023/05/12 10:47:43;;;;;;;2.30;1.48;;;;;;;;;;5025736;28;20046;-84
2023/05/12 10:50:12;;;;;;;2.95;1.40;;;;;;;;;;5027178;28;20025;-84
2023/05/12 10:52:39;;;;;;;2.67;1.27;;;;;;;;;;5026824;28;20029;-84
2023/05/12 10:55:05;;;;;;;1.50;1.15;;;;;;;;;;5027383;28;20027;-85
2023/05/12 10:57:31;;;;;;;1.92;1.33;;;;;;;;;;5030970;28;20033;-85
2023/05/12 10:59:58;;;;;;;2.03;1.35;;;;;;;;;;5027117;28;20515;-85
2023/05/12 11:02:29;;;;;;;1.95;1.30;;;;;;;;;;5026950;28;20013;-85
2023/05/12 11:04:59;;;;;;;1.85;1.50;;;;;;;;;;5031056;28;20120;-84
2023/05/12 11:07:26;;;;;;;1.15;1.10;;;;;;;;;;5031731;28;20052;-85
2023/05/12 11:09:53;;;;;;;2.22;1.30;;;;;;;;;;5026741;28;20031;-84
2023/05/12 11:12:19;;;;;;;1.80;1.33;;;;;;;;;;5026511;28;20358;-85
2023/05/12 11:14:46;;;;;;;2.28;1.30;;;;;;;;;;5026852;28;20080;-84
2023/05/12 11:17:13;;;;;;;1.10;1.00;;;;;;;;;;5026095;28;20029;-85
2023/05/12 11:19:39;;;;;;;2.30;1.73;;;;;;;;;;5040533;28;20443;-85
2023/05/12 11:22:06;;;;;;;1.60;1.35;;;;;;;;;;5031489;28;20495;-85
2023/05/12 11:24:32;;;;;;;1.88;1.50;;;;;;;;;;5027119;28;20029;-84
2023/05/12 11:26:58;;;;;;;2.90;1.63;;;;;;;;;;5026258;28;20511;-83
2023/05/12 11:29:24;;;;;;;1.70;1.27;;;;;;;;;;5031797;28;20021;-84
2023/05/12 11:31:51;;;;;;;2.22;1.50;;;;;;;;;;5031695;28;20108;-85
2023/05/12 11:34:21;;;;;;;1.17;1.05;;;;;;;;;;5027069;28;20553;-84
2023/05/12 11:36:47;;;;;;;4.78;1.40;;;;;;;;;;5026704;28;20029;-85
2023/05/12 11:39:15;;;;;;;2.47;1.67;;;;;;;;;;5026325;28;20439;-84
2023/05/12 11:41:41;;;;;;;1.80;1.42;;;;;;;;;;5029778;28;20032;-83
2023/05/12 11:44:15;;;;;;;1.70;1.30;;;;;;;;;;5027483;28;20392;-85
2023/05/12 11:46:41;;;;;;;1.65;1.35;;;;;;;;;;5035974;28;20052;-85
2023/05/12 11:49:11;;;;;;;3.15;1.63;;;;;;;;;;5026146;28;20437;-84
2023/05/12 11:51:40;;;;;;;1.83;1.52;;;;;;;;;;5026593;28;20108;-82
2023/05/12 11:54:07;;;;;;;1.50;1.38;;;;;;;;;;5027035;28;20108;-85
2023/05/12 11:56:33;;;;;;;1.70;1.48;;;;;;;;;;5034904;28;20048;-85
2023/05/12 11:58:59;;;;;;;1.77;1.55;;;;;;;;;;5038373;28;20020;-83
2023/05/12 12:01:25;;;;;;;2.33;1.80;;;;;;;;;;5029529;28;20022;-86
2023/05/12 12:03:53;;;;;;;1.50;1.40;;;;;;;;;;5012226;28;20041;-83
2023/05/12 12:06:19;;;;;;;2.22;1.60;;;;;;;;;;5043776;28;20507;-84
2023/05/12 12:08:56;;;;;;;1.88;1.58;;;;;;;;;;5036289;28;20029;-84
2023/05/12 12:11:22;;;;;;;1.20;1.10;;;;;;;;;;5011835;28;20029;-83
2023/05/12 12:13:55;;;;;;;2.33;1.58;;;;;;;;;;5030006;28;20033;-84
2023/05/12 12:16:25;;;;;;;1.45;1.35;;;;;;;;;;5029068;28;20037;-85
2023/05/12 12:18:51;;;;;;;2.08;1.63;;;;;;;;;;5043232;28;20445;-84
2023/05/12 12:21:17;;;;;;;2.22;1.60;;;;;;;;;;5030068;28;20388;-84
2023/05/12 12:23:43;;;;;;;2.55;1.67;;;;;;;;;;5029157;28;20152;-85
2023/05/12 12:26:09;;;;;;;1.55;1.45;;;;;;;;;;5029938;28;20029;-85
2023/05/12 12:28:35;;;;;;;2.08;1.55;;;;;;;;;;5039255;28;20018;-85
2023/05/12 12:31:01;;;;;;;4.07;1.40;;;;;;;;;;5040759;28;20535;-84
2023/05/12 12:33:27;;;;;;;1.65;1.40;;;;;;;;;;5030931;28;20387;-84
2023/05/12 12:35:53;;;;;;;2.58;1.73;;;;;;;;;;5030225;28;20094;-82
2023/05/12 12:38:19;;;;;;;1.98;1.33;;;;;;;;;;5030195;28;20522;-82
2023/05/12 12:40:46;;;;;;;2.67;1.48;;;;;;;;;;5028282;28;20075;-83
2023/05/12 12:43:12;;;;;;;1.08;1.08;;;;;;;;;;5039643;28;20025;-83
2023/05/12 12:45:38;;;;;;;1.70;1.60;;;;;;;;;;5030141;28;20112;-83
2023/05/12 12:48:05;;;;;;;1.45;1.35;;;;;;;;;;5038989;28;20037;-83
2023/05/12 12:50:32;;;;;;;2.55;1.60;;;;;;;;;;5032211;28;20393;-85
2023/05/12 12:52:58;;;;;;;1.15;1.05;;;;;;;;;;5028189;28;20112;-81
2023/05/12 12:55:27;;;;;;;1.67;1.30;;;;;;;;;;5029984;28;20024;-82
2023/05/12 12:57:53;;;;;;;2.13;1.40;;;;;;;;;;5025330;28;20055;-82
2023/05/12 13:00:19;;;;;;;1.60;1.50;;;;;;;;;;5026643;28;20025;-81
2023/05/12 13:02:45;;;;;;;1.33;1.20;;;;;;;;;;5022051;28;20032;-77
2023/05/12 13:05:11;;;;;;;2.67;1.67;;;;;;;;;;5026177;28;20863;-77
2023/05/12 13:07:37;;;;;;;2.47;1.35;;;;;;;;;;5023543;28;20033;-76
2023/05/12 13:10:03;;;;;;;1.83;1.33;;;;;;;;;;5025451;28;20116;-77
2023/05/12 13:12:30;;;;;;;1.45;1.20;;;;;;;;;;5024740;28;20021;-78
2023/05/12 13:14:56;;;;;;;1.67;1.20;;;;;;;;;;5027429;28;20021;-76
2023/05/12 13:17:22;;;;;;;1.33;1.10;;;;;;;;;;5025477;28;20026;-75
2023/05/12 13:19:48;;;;;;;1.08;1.02;;;;;;;;;;5024511;28;20504;-77
2023/05/12 13:22:17;;;;;;;1.52;1.30;;;;;;;;;;5027049;28;20025;-78
2023/05/12 13:24:43;;;;;;;1.20;1.10;;;;;;;;;;5028588;28;20566;-77
2023/05/12 13:27:09;;;;;;;1.27;1.17;;;;;;;;;;5027601;28;20120;-78
2023/05/12 13:29:35;;;;;;;1.48;1.13;;;;;;;;;;5022946;28;20462;-77
2023/05/12 13:32:02;;;;;;;1.35;1.25;;;;;;;;;;5028308;28;20058;-78
2023/05/12 13:34:28;;;;;;;1.95;1.48;;;;;;;;;;5036276;28;20029;-77
2023/05/12 13:36:54;;;;;;;3.40;1.70;;;;;;;;;;5030451;28;20103;-85
2023/05/12 13:39:20;;;;;;;1.33;1.20;;;;;;;;;;5029077;28;20476;-85
2023/05/12 13:41:46;;;;;;;2.17;1.38;;;;;;;;;;5029198;28;20029;-89
2023/05/12 13:44:12;;;;;;;1.60;1.33;;;;;;;;;;5035332;28;20043;-85
2023/05/12 13:46:41;;;;;;;1.98;1.55;;;;;;;;;;5035499;28;20507;-85
2023/05/12 13:49:07;;;;;;;1.90;1.60;;;;;;;;;;5025780;28;20039;-84
2023/05/12 13:51:33;;;;;;;3.03;1.75;;;;;;;;;;5033792;28;20036;-86
2023/05/12 13:53:59;;;;;;;2.35;1.40;;;;;;;;;;5033792;28;20029;-87
2023/05/12 13:56:25;;;;;;;2.03;1.52;;;;;;;;;;5027999;28;20057;-77
2023/05/12 13:58:51;;;;;;;4.53;1.60;;;;;;;;;;5024386;28;20034;-84
2023/05/12 14:01:17;;;;;;;1.85;1.45;;;;;;;;;;5021837;28;20112;-80
2023/05/12 14:03:44;;;;;;;2.63;1.40;;;;;;;;;;5022116;28;20105;-76
2023/05/12 14:06:11;;;;;;;2.03;1.58;;;;;;;;;;5029957;28;20021;-80
2023/05/12 14:08:37;;;;;;;1.92;1.65;;;;;;;;;;5026767;28;20025;-76
2023/05/12 14:11:03;;;;;;;1.65;1.20;;;;;;;;;;5021599;28;20387;-76
2023/05/12 14:13:29;;;;;;;1.73;1.45;;;;;;;;;;5025013;28;20057;-77
2023/05/12 14:15:55;;;;;;;2.50;1.38;;;;;;;;;;5024740;28;20045;-80
2023/05/12 14:18:21;;;;;;;2.28;1.42;;;;;;;;;;5007768;28;20060;-79
2023/05/12 14:20:47;;;;;;;1.75;1.50;;;;;;;;;;5023754;28;20025;-78
2023/05/12 14:23:13;;;;;;;4.75;1.50;;;;;;;;;;5022255;28;20088;-79
2023/05/12 14:25:40;;;;;;;2.20;1.25;;;;;;;;;;5025807;28;20030;-76
2023/05/12 14:28:05;;;;;;;1.73;1.30;;;;;;;;;;5023857;28;20044;-76
2023/05/12 14:30:33;;;;;;;1.95;1.48;;;;;;;;;;5026202;28;20104;-77
2023/05/12 14:33:00;;;;;;;1.80;1.45;;;;;;;;;;5023585;28;20043;-81
2023/05/12 14:35:27;;;;;;;3.22;1.65;;;;;;;;;;5023715;28;20083;-81
2023/05/12 14:37:53;;;;;;;5.10;1.42;;;;;;;;;;5030114;28;20033;-80
2023/05/12 14:40:19;;;;;;;1.38;1.25;;;;;;;;;;5026522;28;20472;-80